Latest Weather Observations for Kalgoorlie-Boulder

IDW60801

Issued at 12:05 pm WST Tuesday 2 September 2014 (issued every 30 minutes, with the page automatically refreshed every 10 minutes)

About weather observations | Map of weather stations | Latest weather observations for WA | Other Formats
Station Details ID: 012038 Name: KALGOORLIE-BOULDER AIRPORT Lat: -30.78 Lon: 121.45 Height: 365.3 m
Data from the previous 72 hours. | See also: Recent months at Kalgoorlie-Boulder
Date/Time
WST
Temp
°C
App
Temp
°C
Dew
Point
Rel
Hum
%
Delta-T
°C
Wind Press
QNH
hPa
Press
MSL
hPa
Rain
since 9 am
mm
Dir
 
Spd
km/h
Gust
km/h
Spd
kts
Gust
kts
02/12:00pm 19.3 14.5 2.5 32 7.9 NNE 17 26 9 14 1019.9 1019.4 0.0
02/11:30am 18.3 12.9 2.4 34 7.4 NNE 20 30 11 16 1020.3 - 0.0
02/11:00am 16.8 11.5 2.1 37 6.7 NNE 19 30 10 16 1021.2 - 0.0
02/10:30am 15.3 10.0 1.6 39 6.1 NNE 19 26 10 14 1021.6 - 0.0
02/10:00am 15.1 8.8 1.3 39 6.1 N 24 33 13 18 1022.1 - 0.0
02/09:30am 14.5 9.1 1.3 40 5.8 NNE 19 26 10 14 1022.3 - 0.0
02/09:00am 13.7 8.3 1.3 43 5.4 NNE 19 28 10 15 1022.6 1022.1 0.0
02/08:30am 13.3 8.3 1.4 44 5.2 NNE 17 24 9 13 1022.8 - 0.0
02/08:00am 12.5 7.5 1.1 45 4.9 NE 17 24 9 13 1022.6 - 0.0
02/07:00am 11.9 7.2 1.2 48 4.6 NE 15 22 8 12 1022.1 - 0.0
02/06:30am 11.8 6.8 1.3 48 4.5 NE 17 24 9 13 1021.7 - 0.0
02/06:00am 11.8 6.8 1.3 48 4.5 NE 17 22 9 12 1021.5 1021.0 0.0
02/05:30am 11.9 7.3 1.5 49 4.5 NE 15 24 8 13 1021.5 - 0.0
02/05:00am 12.0 7.0 1.3 48 4.6 NE 17 24 9 13 1021.5 - 0.0
02/04:30am 12.0 7.0 1.3 48 4.6 NE 17 24 9 13 1021.7 - 0.0
02/04:00am 12.1 7.1 1.5 48 4.6 NE 17 24 9 13 1021.7 - 0.0
02/03:30am 12.2 6.9 1.6 48 4.6 ENE 19 24 10 13 1021.8 - 0.0
02/03:00am 12.0 7.5 1.9 50 4.4 ENE 15 20 8 11 1021.7 1021.2 0.0
02/02:30am 12.1 7.6 2.0 50 4.4 ENE 15 22 8 12 1022.2 - 0.0
02/02:00am 12.3 7.4 1.7 48 4.6 ENE 17 22 9 12 1022.3 - 0.0
02/01:30am 12.4 7.9 1.9 48 4.6 ENE 15 22 8 12 1022.9 - 0.0
02/01:00am 12.4 7.1 1.9 48 4.6 ENE 19 26 10 14 1022.6 - 0.0
02/12:30am 12.8 7.9 1.9 47 4.8 ENE 17 24 9 13 1022.7 - 0.0
02/12:00am 12.8 7.9 2.1 48 4.7 ENE 17 26 9 14 1022.9 1022.5 0.0
 
Date/Time
WST
Temp
°C
App
Temp
°C
Dew
Point
Rel
Hum
%
Delta-T
°C
Wind Press
QNH
hPa
Press
MSL
hPa
Rain
since 9 am
mm
Dir
 
Spd
km/h
Gust
km/h
Spd
kts
Gust
kts
01/11:30pm 12.9 8.0 2.3 48 4.7 ENE 17 22 9 12 1023.1 - 0.0
01/11:00pm 13.2 8.3 2.1 47 4.9 E 17 24 9 13 1023.6 - 0.0
01/10:30pm 13.3 8.1 2.3 47 4.9 E 19 32 10 17 1023.5 - 0.0
01/10:00pm 13.1 8.2 2.3 48 4.8 E 17 26 9 14 1023.6 - 0.0
01/09:30pm 13.1 8.4 2.9 50 4.6 E 17 22 9 12 1023.8 - 0.0
01/09:00pm 14.8 9.2 1.1 39 6.0 E 20 30 11 16 1023.8 1023.3 0.0
01/08:30pm 12.5 8.7 4.0 56 3.9 ESE 13 17 7 9 1023.9 - 0.0
01/08:00pm 12.6 9.2 4.1 56 3.9 ESE 11 13 6 7 1024.2 - 0.0
01/07:30pm 12.9 9.1 4.0 54 4.1 ESE 13 15 7 8 1024.0 - 0.0
01/07:00pm 13.6 10.2 3.8 51 4.5 E 11 15 6 8 1023.6 - 0.0
01/06:30pm 14.7 10.6 2.5 43 5.5 E 13 17 7 9 1023.4 - 0.0
01/06:00pm 14.7 11.5 3.1 45 5.3 E 9 13 5 7 1023.5 1023.0 0.0
01/05:30pm 15.2 11.6 3.0 44 5.6 E 11 15 6 8 1023.1 - 0.0
01/05:00pm 15.7 11.7 2.6 41 6.0 ENE 13 19 7 10 1022.8 - 0.0
01/04:30pm 15.9 11.4 1.9 39 6.3 ENE 15 22 8 12 1022.7 - 0.0
01/04:00pm 16.5 12.2 1.3 36 6.8 E 13 19 7 10 1022.5 - 0.0
01/03:30pm 16.3 11.4 1.9 38 6.5 E 17 22 9 12 1022.6 - 0.0
01/03:00pm 16.2 11.7 2.1 38 6.4 ENE 15 20 8 11 1022.7 1022.3 0.0
01/02:30pm 16.6 12.9 2.4 38 6.5 ENE 11 19 6 10 1022.9 - 0.0
01/02:00pm 16.2 12.2 2.7 40 6.2 NE 13 20 7 11 1023.1 - 0.0
01/01:00pm 15.7 10.5 2.5 41 6.0 ESE 19 30 10 16 1023.5 - 0.0
01/12:30pm 15.2 11.7 3.6 46 5.4 ENE 11 22 6 12 1023.8 - 0.0
01/12:00pm 14.8 10.2 3.6 47 5.2 ENE 17 24 9 13 1024.2 1023.7 0.0
01/11:30am 14.9 10.7 4.0 48 5.1 ENE 15 20 8 11 1024.5 - 0.0
01/11:00am 14.8 10.3 4.1 48 5.0 E 17 22 9 12 1024.9 - 0.0
01/10:30am 13.3 8.8 4.2 54 4.2 E 17 24 9 13 1025.0 - 0.0
01/10:00am 12.9 7.9 4.5 56 3.9 E 20 26 11 14 1025.1 - 0.0
01/09:30am 13.1 7.8 5.0 58 3.8 E 22 28 12 15 1025.3 - 0.0
01/09:00am 11.8 6.9 4.9 62 3.2 E 20 28 11 15 1025.6 1025.2 0.2
01/08:30am 11.1 6.2 5.1 66 2.8 E 20 28 11 15 1025.3 - 0.2
01/08:00am 10.7 6.2 6.0 73 2.2 E 19 26 10 14 1024.9 - 0.2
01/07:30am 10.2 6.2 6.6 78 1.7 ESE 17 20 9 11 1024.3 - 0.2
01/07:00am 8.8 6.4 6.9 88 0.9 ESE 9 11 5 6 1024.2 - 0.2
01/06:30am 7.9 5.7 6.4 90 0.7 SE 7 9 4 5 1023.6 - 0.2
01/06:00am 8.1 5.9 6.2 88 0.9 ESE 7 9 4 5 1023.2 1022.8 0.2
01/05:30am 8.6 6.0 6.0 84 1.2 SE 9 13 5 7 1022.8 - 0.2
01/05:00am 8.4 6.1 5.8 84 1.2 SSE 7 9 4 5 1022.7 - 0.2
01/04:30am 8.7 6.4 5.7 81 1.4 SSE 7 7 4 4 1022.6 - 0.2
01/04:00am 9.2 6.5 5.8 79 1.6 SE 9 11 5 6 1021.9 - 0.2
01/03:30am 9.7 6.6 5.4 74 2.0 SSE 11 17 6 9 1021.8 - 0.2
01/03:00am 10.1 6.6 5.4 72 2.2 SE 13 19 7 10 1021.5 1021.0 0.2
01/02:30am 10.7 6.4 5.1 68 2.6 SSE 17 26 9 14 1021.3 - 0.2
01/02:00am 11.0 6.9 6.2 72 2.3 SE 17 26 9 14 1021.1 - 0.2
01/01:30am 11.3 6.9 6.7 73 2.2 SSE 19 26 10 14 1021.1 - 0.2
01/01:00am 11.6 6.6 6.6 71 2.4 SE 22 33 12 18 1020.9 - 0.2
01/12:30am 12.2 5.8 6.9 70 2.6 SE 30 35 16 19 1021.0 - 0.2
01/12:00am 12.6 8.1 6.2 65 3.1 SSE 19 24 10 13 1020.6 1020.5 0.2
 
Date/Time
WST
Temp
°C
App
Temp
°C
Dew
Point
Rel
Hum
%
Delta-T
°C
Wind Press
QNH
hPa
Press
MSL
hPa
Rain
since 9 am
mm
Dir
 
Spd
km/h
Gust
km/h
Spd
kts
Gust
kts
31/11:30pm 12.7 9.4 6.5 66 3.0 S 13 19 7 10 1020.5 - 0.2
31/11:00pm 12.8 9.5 6.6 66 3.0 S 13 19 7 10 1020.3 - 0.2
31/10:30pm 12.9 10.5 6.8 66 3.0 S 9 15 5 8 1020.2 - 0.2
31/10:00pm 13.1 9.8 6.5 64 3.2 S 13 17 7 9 1020.1 - 0.2
31/09:30pm 13.3 10.4 6.5 63 3.3 S 11 15 6 8 1020.2 - 0.2
31/09:00pm 13.5 10.3 6.8 64 3.3 S 13 17 7 9 1020.3 1020.3 0.2
31/08:30pm 13.9 9.4 6.3 60 3.7 S 19 26 10 14 1020.2 - 0.2
31/08:00pm 14.7 10.5 5.6 54 4.4 S 17 24 9 13 1019.7 - 0.2
31/07:30pm 14.5 12.2 7.3 62 3.6 S 9 11 5 6 1019.7 - 0.2
31/07:00pm 15.1 12.6 6.6 57 4.2 S 9 13 5 7 1019.0 - 0.2
31/06:30pm 15.8 11.6 5.8 51 4.9 S 17 24 9 13 1018.8 - 0.2
31/06:00pm 15.8 12.4 5.8 51 4.9 S 13 22 7 12 1017.8 1017.7 0.2
31/05:30pm 16.9 13.0 3.2 40 6.4 SW 13 20 7 11 1017.4 - 0.2
31/05:00pm 17.6 12.8 2.8 37 6.9 WSW 17 24 9 13 1017.2 - 0.2
31/04:30pm 18.3 12.8 2.1 34 7.5 WSW 20 26 11 14 1017.0 - 0.2
31/04:00pm 18.1 13.0 3.3 37 7.0 WSW 19 28 10 15 1016.7 - 0.2
31/03:30pm 18.4 13.3 3.2 36 7.2 SSW 19 26 10 14 1016.6 - 0.2
31/03:00pm 18.3 13.2 3.0 36 7.2 SW 19 28 10 15 1016.6 1016.6 0.2
31/02:30pm 19.6 14.8 4.5 37 7.4 SW 19 32 10 17 1016.0 - 0.2
31/02:00pm 19.1 13.7 2.5 33 7.8 WSW 20 32 11 17 1016.2 - 0.2
31/01:30pm 19.3 15.3 4.9 38 7.1 W 15 22 8 12 1016.2 - 0.2
31/01:00pm 19.2 14.8 4.8 38 7.1 W 17 26 9 14 1016.4 - 0.2
31/12:30pm 18.5 14.2 5.1 41 6.6 SW 17 26 9 14 1016.8 - 0.2
31/12:00pm 18.3 14.2 6.1 44 6.1 W 17 24 9 13 1016.9 1016.9 0.2
31/11:30am 17.5 13.8 6.3 47 5.6 SW 15 22 8 12 1017.2 - 0.2
31/11:00am 17.5 13.5 6.6 48 5.5 W 17 24 9 13 1017.3 - 0.0
31/10:30am 16.5 12.3 7.5 55 4.6 WSW 19 24 10 13 1017.8 - 0.0
31/10:00am 16.1 11.8 7.7 57 4.3 WSW 20 28 11 15 1017.9 - 0.0
31/09:30am 15.9 12.2 10.1 68 3.1 WSW 20 26 11 14 1018.1 - 0.0
31/09:00am 15.2 12.3 11.1 76 2.2 WSW 17 24 9 13 1017.9 1017.8 11.0
31/08:49am 14.9 11.9 12.0 83 1.6 WSW 19 28 10 15 1018.0 - 11.0
31/08:30am 15.1 12.4 12.8 86 1.3 WSW 19 22 10 12 1017.8 - 11.0
31/08:08am 14.4 12.6 13.2 92 0.7 W 15 20 8 11 1017.4 - 11.0
31/08:00am 14.4 12.9 13.2 92 0.7 W 13 20 7 11 1017.3 - 11.0
31/07:30am 14.0 13.3 13.3 96 0.4 WNW 9 13 5 7 1016.7 - 11.0
31/07:00am 13.6 12.8 12.9 95 0.4 WNW 9 15 5 8 1016.4 - 11.0
31/06:30am 13.5 13.1 13.0 97 0.3 WNW 7 11 4 6 1016.2 - 11.0
31/06:00am 13.3 12.8 12.6 95 0.4 WNW 7 11 4 6 1016.2 1016.1 11.0
31/05:30am 13.7 12.9 12.8 94 0.5 WNW 9 11 5 6 1016.1 - 11.0
31/05:04am 13.8 13.0 12.9 94 0.5 W 9 15 5 8 1016.2 - 11.0
31/05:00am 13.7 12.9 13.0 96 0.4 W 9 13 5 7 1016.1 - 11.0
31/04:30am 13.9 12.8 13.2 96 0.4 WSW 11 15 6 8 1015.9 - 11.0
31/04:00am 13.7 12.2 13.2 97 0.3 SW 13 17 7 9 1015.5 - 11.0
31/03:30am 13.8 11.6 13.4 97 0.2 WSW 17 22 9 12 1015.4 - 11.0
31/03:00am 14.0 11.9 13.5 97 0.3 W 17 24 9 13 1015.3 1015.2 11.0
31/02:44am 14.1 12.0 13.6 97 0.3 WNW 17 24 9 13 1015.2 - 11.0
31/02:30am 14.0 13.0 13.5 97 0.3 WNW 11 15 6 8 1015.2 - 11.0
31/02:00am 13.8 13.1 13.1 96 0.4 NW 9 13 5 7 1015.1 - 11.0
31/01:30am 14.2 13.6 13.5 96 0.4 WNW 9 13 5 7 1015.3 - 11.0
31/01:00am 14.6 13.7 13.7 94 0.5 WNW 11 17 6 9 1015.7 - 11.0
31/12:30am 14.5 14.0 13.8 96 0.4 WNW 9 13 5 7 1015.7 - 11.0
31/12:00am 14.7 14.6 13.8 94 0.5 W 7 11 4 6 1015.8 1015.7 10.8
 
Date/Time
WST
Temp
°C
App
Temp
°C
Dew
Point
Rel
Hum
%
Delta-T
°C
Wind Press
QNH
hPa
Press
MSL
hPa
Rain
since 9 am
mm
Dir
 
Spd
km/h
Gust
km/h
Spd
kts
Gust
kts
30/11:30pm 15.0 14.2 14.0 94 0.6 W 11 15 6 8 1016.1 - 10.8
30/11:00pm 15.1 14.6 13.9 92 0.7 W 9 11 5 6 1016.2 - 10.8
30/10:30pm 15.3 14.5 14.1 92 0.7 W 11 15 6 8 1016.7 - 10.8
30/10:00pm 15.2 15.4 14.2 94 0.6 NNW 6 9 3 5 1016.3 - 10.6
30/09:30pm 15.5 14.4 14.3 92 0.7 W 13 19 7 10 1016.7 - 10.6
30/09:00pm 15.8 14.7 14.4 91 0.8 W 13 20 7 11 1017.2 1017.2 10.2
30/08:30pm 16.0 14.7 14.8 93 0.7 WNW 15 20 8 11 1017.2 - 10.0
30/08:00pm 16.3 15.2 14.4 88 1.1 W 13 17 7 9 1016.4 - 9.4
30/07:30pm 16.1 16.0 14.9 93 0.7 NW 9 11 5 6 1016.0 - 9.4
30/07:00pm 15.9 15.8 14.9 94 0.6 WSW 9 13 5 7 1015.9 - 9.4
30/06:30pm 15.8 14.1 14.6 93 0.7 WSW 17 20 9 11 1015.9 - 8.8
30/06:00pm 16.1 13.1 14.7 91 0.8 SW 24 32 13 17 1015.8 1015.7 7.8
30/05:58pm 16.2 12.7 14.5 90 1.0 SW 26 32 14 17 1015.8 - 7.4
30/05:33pm 16.5 14.2 14.6 88 1.1 W 20 32 11 17 1015.7 - 4.6
30/05:30pm 16.7 14.0 14.5 87 1.3 W 22 32 12 17 1015.6 - 3.4
30/05:00pm 17.3 16.4 14.9 86 1.4 SW 13 15 7 8 1014.5 - 2.6
30/04:30pm 17.9 15.7 15.9 88 1.2 SW 22 32 12 17 1014.2 - 2.6
30/04:00pm 17.9 17.1 16.1 89 1.1 SW 15 20 8 11 1014.2 - 2.0
30/03:30pm 18.4 17.7 15.4 83 1.8 W 13 20 7 11 1014.0 - 1.2
30/03:12pm 18.0 15.7 15.8 87 1.3 SW 22 32 12 17 1013.9 - 1.2
30/03:00pm 17.2 12.9 15.3 88 1.1 SW 32 46 17 25 1014.1 1014.0 1.0
30/02:54pm 17.4 12.3 14.7 84 1.6 SW 35 46 19 25 1014.0 - 0.6
30/02:53pm 17.7 12.5 14.6 82 1.8 SW 35 46 19 25 1014.1 - 0.6
30/02:30pm 23.1 18.9 9.7 42 7.4 W 22 37 12 20 1013.3 - 0.0
30/02:00pm 24.3 19.0 10.0 40 8.0 W 28 37 15 20 1013.7 - 0.0
30/01:30pm 23.8 19.3 10.0 41 7.7 W 24 33 13 18 1014.1 - 0.0
30/01:00pm 23.9 19.6 9.4 39 8.0 WNW 22 35 12 19 1014.2 - 0.0
30/12:30pm 22.4 18.4 10.4 46 6.7 W 22 35 12 19 1014.8 - 0.0

Other Formats:

Comma delimited format used in spreadsheet applications
http://www.bom.gov.au/fwo/IDW60801/IDW60801.94637.axf

JavaScript Object Notation format (JSON) in row-major order
http://www.bom.gov.au/fwo/IDW60801/IDW60801.94637.json